Huvudsida
METAR-TAF:

METAR-TAF

Flygplatser :

Arar, Saudiarabien

latitud: 30-54N, longitud: 041-08E, höjd: 555 m

Aktuellt väderrapport

Denna rapport gjordes för 46 minuter sedan, klockan 19:00 UTC
Vind 6 kt från ost
Temperatur 18°C
Fuktighet 37%
Tryck 1017 hPa
Sikt 10 km eller mer
Brutna moln på en höjd av 4000 ft

METAR: OERR 111900Z 08006KT 9999 BKN040 18/03 Q1017 NOSIG

Tid: 22:46 (19:46 UTC)

Väderprognos

Denna rapport gjordes för 8 timmar och 46 minuter sedan, klockan 11:00 UTC
Prognos gäller från 11 kl. 12 UTC till 12 kl. 18 UTC
Vind 13 kt från ost/nordost
Sikt: 7000 m
Få moln på en höjd av 4000 ft
Blir
från 11 kl. 20 UTC till 11 kl. 22 UTC
Vind 3 kt varierande vindriktning

TAF: OERR 111100Z 1112/1218 06013KT 7000 FEW040 BECMG 1120/1122 VRB03KT

Aktuella väderrapporter och prognoser från 4000 flygplatser (METAR- och TAF-rapporter).

De tillgängliga stationerna syns som gula och röda prickar på kartan.

För musen över prickarna för att se namnen på stationerna.

Klicka sedan för att få väderrapporter och prognoser.

För att ändra kartan: Klicka på de gröna knapparna med ett svart kors på för att zooma in; den gröna knappen med ett streck på för att zooma ut; eller på de gröna pilarna för angränsande kartor.


METAR-TAF: